createdAt,value
2022-09-12T00:03:02.286Z,21.60
2022-09-12T00:08:04.866Z,21.50
2022-09-12T00:13:07.948Z,21.50
2022-09-12T00:18:14.711Z,21.40
2022-09-12T00:23:17.004Z,21.30
2022-09-12T00:28:19.961Z,21.20
2022-09-12T00:33:22.225Z,21.10
2022-09-12T00:38:24.509Z,21.10
2022-09-12T00:43:41.723Z,21.10
2022-09-12T00:48:49.253Z,21.00
2022-09-12T00:53:54.003Z,20.90
2022-09-12T00:59:03.170Z,20.80
2022-09-12T01:04:05.618Z,20.60
2022-09-12T01:09:08.844Z,20.40
2022-09-12T01:14:11.187Z,20.30
2022-09-12T01:35:32.651Z,19.90
2022-09-12T01:40:45.882Z,19.90
2022-09-12T01:56:36.068Z,19.80
2022-09-12T02:01:46.902Z,19.70
2022-09-12T02:12:04.089Z,19.60
2022-09-12T02:17:13.135Z,19.50
2022-09-12T02:22:20.350Z,19.50
2022-09-12T02:27:30.624Z,19.50
2022-09-12T02:43:07.304Z,19.40
2022-09-12T02:53:19.766Z,19.40
2022-09-12T02:58:27.146Z,19.40
2022-09-12T03:14:11.635Z,19.40
2022-09-12T03:24:57.046Z,19.30
2022-09-12T03:30:00.574Z,19.40
2022-09-12T03:35:02.897Z,19.40
2022-09-12T03:40:07.154Z,19.50
2022-09-12T03:45:10.787Z,19.50
2022-09-12T03:50:13.133Z,19.50
2022-09-12T03:55:15.471Z,19.50
2022-09-12T04:00:19.871Z,19.40
2022-09-12T04:05:22.452Z,19.40
2022-09-12T04:10:24.655Z,19.50
2022-09-12T04:15:26.843Z,19.50
2022-09-12T04:20:29.088Z,19.50
2022-09-12T04:25:31.561Z,19.40
2022-09-12T04:30:34.604Z,19.50
2022-09-12T04:35:37.232Z,19.50
2022-09-12T04:40:39.514Z,19.50
2022-09-12T04:45:41.799Z,19.50
2022-09-12T04:50:44.080Z,19.50
2022-09-12T04:55:46.489Z,19.50
2022-09-12T05:00:49.028Z,19.40
2022-09-12T05:05:55.814Z,19.40
2022-09-12T05:11:05.092Z,19.30
2022-09-12T05:16:10.144Z,19.40
2022-09-12T05:21:14.611Z,19.30
2022-09-12T05:26:17.400Z,19.20
2022-09-12T05:31:23.097Z,19.20
2022-09-12T05:36:30.182Z,19.30
2022-09-12T05:41:34.013Z,19.30
2022-09-12T05:46:38.658Z,19.40
2022-09-12T05:51:44.232Z,19.50
2022-09-12T05:56:47.289Z,19.60
2022-09-12T06:01:49.825Z,19.70
2022-09-12T06:06:52.115Z,19.70
2022-09-12T06:11:54.498Z,19.80
2022-09-12T06:16:56.765Z,19.90
2022-09-12T06:21:59.035Z,20.10
2022-09-12T06:27:02.503Z,20.50
2022-09-12T06:32:04.994Z,21.80
2022-09-12T06:37:07.236Z,23.00
2022-09-12T06:42:10.098Z,23.90
2022-09-12T06:47:12.976Z,25.80
2022-09-12T06:52:15.559Z,29.30
2022-09-12T06:57:18.047Z,31.40
2022-09-12T07:02:20.877Z,31.50
2022-09-12T07:07:24.242Z,33.00
2022-09-12T07:12:29.135Z,33.60
2022-09-12T07:17:37.244Z,34.80
2022-09-12T07:22:39.554Z,35.70
2022-09-12T07:27:41.820Z,36.60
2022-09-12T07:32:44.087Z,37.20
2022-09-12T07:37:46.683Z,37.90
2022-09-12T07:42:49.700Z,37.90
2022-09-12T07:47:54.537Z,38.00
2022-09-12T07:52:56.771Z,36.90
2022-09-12T07:57:59.195Z,35.60
2022-09-12T08:03:03.900Z,34.20
2022-09-12T08:08:10.048Z,32.70
2022-09-12T08:13:12.466Z,31.50
2022-09-12T08:18:14.710Z,30.50
2022-09-12T08:23:18.235Z,29.60
2022-09-12T08:28:20.439Z,29.20
2022-09-12T08:33:22.675Z,29.00
2022-09-12T08:38:24.947Z,28.50
2022-09-12T08:43:56.092Z,28.40
2022-09-12T08:49:01.666Z,27.80
2022-09-12T08:54:06.343Z,27.90
2022-09-12T08:59:09.083Z,28.20
2022-09-12T09:09:48.296Z,28.70
2022-09-12T09:15:30.263Z,28.20
2022-09-12T09:25:54.598Z,27.30
2022-09-12T09:30:58.028Z,26.80
2022-09-12T09:46:38.615Z,26.00
2022-09-12T09:51:42.795Z,25.80
2022-09-12T09:56:45.541Z,25.70
2022-09-12T10:01:55.042Z,25.50
2022-09-12T10:07:00.050Z,25.30
2022-09-12T10:12:21.963Z,25.40
2022-09-12T10:17:33.766Z,25.50
2022-09-12T10:22:38.648Z,25.30
2022-09-12T10:27:42.834Z,25.00
2022-09-12T10:32:50.922Z,25.00
2022-09-12T10:37:57.841Z,24.80
2022-09-12T10:43:00.811Z,25.00
2022-09-12T10:48:22.828Z,24.70
2022-09-12T11:04:40.056Z,23.70
2022-09-12T11:20:40.072Z,23.20
2022-09-12T11:36:11.324Z,23.40
2022-09-12T11:41:27.524Z,23.10
2022-09-12T12:02:27.846Z,23.00
2022-09-12T12:07:45.537Z,23.70
2022-09-12T12:12:48.906Z,23.60
2022-09-12T12:18:16.175Z,23.60
2022-09-12T12:23:28.724Z,23.30
2022-09-12T12:34:02.643Z,23.30
2022-09-12T12:50:01.714Z,23.40
2022-09-12T12:55:04.949Z,23.00
2022-09-12T13:11:14.438Z,23.20
2022-09-12T13:22:02.447Z,23.20
2022-09-12T13:27:18.127Z,23.40
2022-09-12T13:32:20.462Z,23.30
2022-09-12T13:37:54.079Z,23.40
2022-09-12T13:43:17.471Z,22.90
2022-09-12T13:48:24.254Z,22.60
2022-09-12T13:53:32.248Z,22.60
2022-09-12T13:58:35.251Z,22.90
2022-09-12T14:04:17.435Z,22.90
2022-09-12T14:14:36.598Z,23.10
2022-09-12T14:19:39.957Z,22.80
2022-09-12T14:24:42.288Z,22.90
2022-09-12T14:29:44.965Z,22.90
2022-09-12T14:35:17.350Z,22.80
2022-09-12T14:40:22.259Z,22.80
2022-09-12T14:50:37.252Z,22.30
2022-09-12T14:55:46.503Z,22.30
2022-09-12T15:06:08.853Z,22.00
2022-09-12T15:11:11.212Z,22.30
2022-09-12T15:16:13.966Z,22.00
2022-09-12T15:21:20.507Z,21.90
2022-09-12T15:26:27.447Z,22.10
2022-09-12T15:31:31.674Z,22.00
2022-09-12T15:36:34.048Z,22.00
2022-09-12T15:41:38.279Z,22.10
2022-09-12T15:46:41.004Z,22.10
2022-09-12T15:51:43.420Z,22.10
2022-09-12T15:56:45.978Z,22.10
2022-09-12T16:01:49.260Z,22.10
2022-09-12T16:06:52.798Z,22.10
2022-09-12T16:11:55.074Z,22.30
2022-09-12T16:16:57.346Z,22.30
2022-09-12T16:21:59.574Z,22.20
2022-09-12T16:27:01.878Z,22.40
2022-09-12T16:32:04.528Z,22.40
2022-09-12T16:37:06.815Z,22.30
2022-09-12T16:42:09.258Z,22.60
2022-09-12T16:47:11.928Z,22.60
2022-09-12T16:52:16.709Z,22.50
2022-09-12T16:57:19.027Z,22.60
2022-09-12T17:02:21.510Z,22.60
2022-09-12T17:07:23.936Z,22.70
2022-09-12T17:12:26.188Z,22.70
2022-09-12T17:17:28.514Z,22.80
2022-09-12T17:22:30.768Z,22.80
2022-09-12T17:27:33.062Z,22.80
2022-09-12T17:32:35.267Z,22.80
2022-09-12T17:37:37.831Z,22.70
2022-09-12T17:42:40.995Z,22.70
2022-09-12T17:47:43.248Z,22.70
2022-09-12T17:52:45.976Z,22.60
2022-09-12T17:57:49.108Z,22.60
2022-09-12T18:02:51.369Z,22.40
2022-09-12T18:07:53.643Z,22.20
2022-09-12T18:12:55.866Z,22.10
2022-09-12T18:17:58.086Z,21.80
2022-09-12T18:23:00.833Z,21.80
2022-09-12T18:28:07.218Z,21.60
2022-09-12T18:33:11.267Z,21.50
2022-09-12T18:38:13.516Z,21.40
2022-09-12T18:43:15.774Z,21.40
2022-09-12T18:48:18.097Z,21.40
2022-09-12T18:53:23.644Z,21.40
2022-09-12T18:58:28.865Z,21.50
2022-09-12T19:03:31.127Z,21.50
2022-09-12T19:08:35.137Z,21.50
2022-09-12T19:13:40.755Z,21.50
2022-09-12T19:18:43.675Z,21.50
2022-09-12T19:23:46.450Z,21.50
2022-09-12T19:28:49.460Z,21.50
2022-09-12T19:33:53.055Z,21.50
2022-09-12T19:38:55.477Z,21.50
2022-09-12T19:43:58.011Z,21.40
2022-09-12T19:49:00.364Z,21.50
2022-09-12T19:54:03.024Z,21.50
2022-09-12T19:59:05.271Z,21.50
2022-09-12T20:04:07.494Z,21.60
2022-09-12T20:09:09.721Z,21.70
2022-09-12T20:14:11.950Z,21.80
2022-09-12T20:19:14.270Z,21.80
2022-09-12T20:24:16.778Z,21.80
2022-09-12T20:29:19.489Z,21.70
2022-09-12T20:34:22.047Z,21.70
2022-09-12T20:39:24.394Z,21.60
2022-09-12T20:44:26.669Z,21.60
2022-09-12T20:49:28.882Z,21.60
2022-09-12T20:54:31.250Z,21.50
2022-09-12T20:59:35.215Z,21.50
2022-09-12T21:04:37.442Z,21.50
2022-09-12T21:09:39.860Z,21.50
2022-09-12T21:14:42.091Z,21.50
2022-09-12T21:19:44.401Z,21.40
2022-09-12T21:24:46.723Z,21.30
2022-09-12T21:29:49.796Z,21.30
2022-09-12T21:34:52.031Z,21.10
2022-09-12T21:39:54.297Z,21.20
2022-09-12T21:44:56.531Z,21.10
2022-09-12T21:49:58.819Z,21.00
2022-09-12T21:55:01.329Z,20.90
2022-09-12T22:00:08.055Z,20.80
2022-09-12T22:05:21.381Z,20.80
2022-09-12T22:10:23.602Z,20.70
2022-09-12T22:15:41.564Z,20.70
2022-09-12T22:20:44.027Z,20.70
2022-09-12T22:25:46.951Z,20.60
2022-09-12T22:30:49.229Z,20.60
2022-09-12T22:35:51.894Z,20.50
2022-09-12T22:40:54.158Z,20.40
2022-09-12T22:45:56.367Z,20.40
2022-09-12T22:50:58.618Z,20.30
2022-09-12T22:56:00.933Z,20.20
2022-09-12T23:01:06.136Z,20.00
2022-09-12T23:06:11.570Z,19.90
2022-09-12T23:11:17.368Z,19.90
2022-09-12T23:16:23.411Z,19.80
2022-09-12T23:21:25.763Z,19.80
2022-09-12T23:26:29.701Z,19.70
2022-09-12T23:31:33.476Z,19.60
2022-09-12T23:36:36.031Z,19.30
2022-09-12T23:41:38.271Z,19.20
2022-09-12T23:46:40.552Z,19.00
2022-09-12T23:51:42.814Z,18.90
2022-09-12T23:56:45.642Z,18.80
